EW7438 Veracruz MX current weather conditions

sailwx.info

Wind from 189 at 3 knots gusting 7

Air temperature 24.4° C
Dewpoint 15.1° C

Last reported at 2020-Jan-22 21:45 UTC.
Time now 2020-Jan-22 22:57 UTC

Location: N 19°08' W 096°11'.
View on Google Maps.

See reports from other nearby stations

  
Tides and Currents Weather Stations Pressure Air Temp Water Temp Dewpoint Dewpoint Depression Visibility Wind Speed Wind Dir Waves Ship Positions
date/time (UTC)wind fromknots sea level pressurealtimeterstation pressurevisibilityair tempwater tempwave heightnotes
2020-Jan-22 21:45 189 3 gusting 7 24.4
2020-Jan-22 21:16 165 6 gusting 8 24.4
2020-Jan-22 20:46 191 5 gusting 10 25.0
2020-Jan-22 20:16 141 3 gusting 10 24.4
2020-Jan-22 20:00 159 4 gusting 7 24.4
2020-Jan-22 19:48 205 5 gusting 8 24.4
2020-Jan-22 19:30 205 4 gusting 9 24.4
2020-Jan-22 19:16 148 6 gusting 11 25.0
2020-Jan-22 19:00 204 6 gusting 11 23.9
2020-Jan-22 18:46 192 7 gusting 13 23.9
2020-Jan-22 18:30 180 6 gusting 9 23.9
2020-Jan-22 18:01 186 5 gusting 9 23.3
2020-Jan-22 17:32 135 6 gusting 11 22.8
2020-Jan-22 17:01 175 5 gusting 9 22.2
2020-Jan-22 16:30 175 4 gusting 8 21.7
2020-Jan-22 16:01 239 5 gusting 8 21.1
2020-Jan-22 15:31 190 2 gusting 6 20.0
2020-Jan-22 15:15 223 4 gusting 6 19.4
2020-Jan-22 15:01 185 1 gusting 5 19.4
2020-Jan-22 14:30 196 2 gusting 3 18.3
2020-Jan-22 14:17 198 1 gusting 4 18.3
2020-Jan-22 14:01 198 2 gusting 3 18.3
2020-Jan-22 13:30 197 0 gusting 2 17.8
2020-Jan-22 13:17 197 0 gusting 1 17.8
2020-Jan-22 13:00 197 1 gusting 3 17.8
2020-Jan-22 12:30 197 0 gusting 2 17.8
2020-Jan-22 12:01 197 0 gusting 2 17.8
2020-Jan-22 11:30 198 0 gusting 2 17.8
2020-Jan-22 11:01 197 0 gusting 2 18.3
2020-Jan-22 10:32 197 2 gusting 3 18.3
2020-Jan-22 10:00 197 1 gusting 3 18.3
2020-Jan-22 09:31 197 0 gusting 1 17.8
2020-Jan-22 09:00 197 18.3
2020-Jan-22 08:47 197 18.3
2020-Jan-22 08:31 197 18.3
2020-Jan-22 08:00 197 1 gusting 2 18.3
2020-Jan-22 05:01 188 0 gusting 2 18.3
2020-Jan-22 04:31 188 1 gusting 3 18.3
2020-Jan-22 04:02 097 18.3
2020-Jan-22 03:45 097 1 gusting 5 18.3
2020-Jan-22 03:15 136 3 gusting 6 18.9
2020-Jan-22 02:47 109 6 gusting 11 19.4
2020-Jan-22 02:17 092 6 gusting 10 20.6
2020-Jan-22 01:45 014 3 gusting 5 20.0
2020-Jan-22 01:17 360 3 gusting 5 20.0
2020-Jan-22 00:47 360 3 gusting 5 20.6
2020-Jan-22 00:30 351 4 gusting 7 20.6
2020-Jan-22 00:00 032 4 gusting 6 21.1
2020-Jan-21 23:30 028 5 gusting 11 21.1
2020-Jan-21 23:01 351 9 gusting 13 21.7
2020-Jan-21 22:32 014 7 gusting 13 22.2
2020-Jan-21 22:01 010 7 gusting 11 22.2
2020-Jan-21 21:31 019 9 gusting 15 22.8
2020-Jan-21 21:02 020 10 gusting 15 22.8
2020-Jan-21 20:30 005 10 gusting 15 23.3
2020-Jan-21 20:03 020 8 gusting 13 22.2
2020-Jan-21 19:31 005 10 gusting 13 22.2
2020-Jan-21 19:01 025 9 gusting 13 22.2
2020-Jan-21 18:31 342 9 gusting 13 22.8
2020-Jan-21 18:00 344 10 gusting 13 22.2
2020-Jan-21 17:33 355 7 gusting 12 20.6
2020-Jan-21 17:15 018 9 gusting 13 22.2
2020-Jan-21 16:45 009 8 gusting 12 22.2
2020-Jan-21 16:16 011 9 gusting 13 21.7
2020-Jan-21 15:46 342 3 gusting 6 21.1
2020-Jan-21 15:17 327 4 gusting 6 20.0
2020-Jan-21 14:31 317 3 gusting 7 18.9
2020-Jan-21 14:00 312 3 gusting 6 18.9
2020-Jan-21 13:30 340 3 gusting 7 18.3
2020-Jan-21 13:01 317 2 gusting 4 18.3
2020-Jan-21 12:30 325 0 gusting 2 18.3
2020-Jan-21 12:01 323 2 gusting 4 18.3
2020-Jan-21 11:30 329 6 gusting 8 18.3
2020-Jan-21 11:01 318 2 gusting 5 18.3
2020-Jan-21 10:45 279 0 gusting 2 17.8
2020-Jan-21 10:16 271 1 gusting 3 17.8
2020-Jan-21 09:31 267 1 gusting 3 17.8
2020-Jan-21 09:00 236 0 gusting 2 17.8
2020-Jan-21 08:30 226 0 gusting 3 17.8
2020-Jan-21 08:18 226 1 gusting 3 17.8
2020-Jan-21 08:01 226 0 gusting 2 17.8
2020-Jan-21 07:45 226 1 gusting 3 17.8
2020-Jan-21 07:16 246 2 gusting 3 17.8
2020-Jan-21 06:47 306 3 gusting 8 18.3
2020-Jan-21 06:16 297 4 gusting 9 18.9
2020-Jan-21 06:00 305 4 gusting 12 19.4
2020-Jan-21 05:33 346 7 gusting 13 20.0
2020-Jan-21 05:01 348 8 gusting 17 20.0
2020-Jan-21 04:30 351 14 gusting 19 20.0
2020-Jan-21 04:00 360 12 gusting 19 20.0
2020-Jan-21 03:46 355 15 gusting 21 20.0
2020-Jan-21 03:31 010 13 gusting 20 20.0
2020-Jan-21 03:01 005 15 gusting 22 20.0
2020-Jan-21 02:30 355 19 gusting 30 20.0
2020-Jan-21 02:02 355 19 gusting 33 20.0
2020-Jan-21 01:45 349 15 gusting 29 20.0
2020-Jan-21 01:32 355 19 gusting 29 20.0
2020-Jan-21 01:02 355 17 gusting 30 20.0
2020-Jan-21 00:45 360 23 gusting 30 20.0
2020-Jan-21 00:31 020 19 gusting 35 20.0
2020-Jan-21 00:00 360 21 gusting 27 20.6
2020-Jan-20 23:47 360 19 gusting 32 20.6
2020-Jan-20 23:30 005 16 gusting 30 20.6
2020-Jan-20 23:18 348 20 gusting 32 21.1
2020-Jan-20 23:00 349 23 gusting 33 21.1
2020-Jan-20 22:47 360 20 gusting 33 21.1
2020-Jan-20 22:31 018 18 gusting 31 21.7
2020-Jan-20 22:16 012 21 gusting 36 21.7
2020-Jan-20 22:00 348 24 gusting 34 21.7